sensor_id;sensor_type;location;lat;lon;timestamp;pressure;altitude;pressure_sealevel;temperature;humidity
10978;BME280;5542;48.272;10.794;2022-12-18T00:01:53;96700.84;;;-5.50;93.76
10978;BME280;5542;48.272;10.794;2022-12-18T00:04:21;96707.31;;;-5.57;94.44
10978;BME280;5542;48.272;10.794;2022-12-18T00:06:50;96712.25;;;-5.54;93.74
10978;BME280;5542;48.272;10.794;2022-12-18T00:09:18;96703.69;;;-5.42;93.12
10978;BME280;5542;48.272;10.794;2022-12-18T00:11:44;96701.69;;;-5.62;93.53
10978;BME280;5542;48.272;10.794;2022-12-18T00:14:12;96703.63;;;-5.66;93.78
10978;BME280;5542;48.272;10.794;2022-12-18T00:16:39;96711.25;;;-5.64;93.80
10978;BME280;5542;48.272;10.794;2022-12-18T00:19:06;96703.94;;;-5.57;93.78
10978;BME280;5542;48.272;10.794;2022-12-18T00:21:33;96717.50;;;-5.55;93.63
10978;BME280;5542;48.272;10.794;2022-12-18T00:24:01;96724.34;;;-5.69;93.14
10978;BME280;5542;48.272;10.794;2022-12-18T00:26:29;96727.44;;;-5.63;93.53
10978;BME280;5542;48.272;10.794;2022-12-18T00:28:59;96728.75;;;-5.58;93.20
10978;BME280;5542;48.272;10.794;2022-12-18T00:31:25;96729.47;;;-5.69;93.91
10978;BME280;5542;48.272;10.794;2022-12-18T00:33:53;96728.97;;;-5.86;94.86
10978;BME280;5542;48.272;10.794;2022-12-18T00:36:21;96728.16;;;-5.74;95.07
10978;BME280;5542;48.272;10.794;2022-12-18T00:38:48;96735.44;;;-5.68;94.12
10978;BME280;5542;48.272;10.794;2022-12-18T00:41:17;96739.94;;;-5.59;94.33
10978;BME280;5542;48.272;10.794;2022-12-18T00:44:06;96729.88;;;-5.75;94.83
10978;BME280;5542;48.272;10.794;2022-12-18T00:46:32;96741.19;;;-5.64;94.61
10978;BME280;5542;48.272;10.794;2022-12-18T00:48:59;96723.13;;;-5.63;94.75
10978;BME280;5542;48.272;10.794;2022-12-18T00:51:26;96724.13;;;-5.53;94.61
10978;BME280;5542;48.272;10.794;2022-12-18T00:53:52;96730.88;;;-5.52;94.40
10978;BME280;5542;48.272;10.794;2022-12-18T00:56:20;96737.25;;;-5.45;93.86
10978;BME280;5542;48.272;10.794;2022-12-18T00:58:47;96735.00;;;-5.62;94.68
10978;BME280;5542;48.272;10.794;2022-12-18T01:01:14;96740.63;;;-5.44;94.32
10978;BME280;5542;48.272;10.794;2022-12-18T01:03:41;96738.00;;;-5.55;94.53
10978;BME280;5542;48.272;10.794;2022-12-18T01:06:09;96735.00;;;-5.49;95.12
10978;BME280;5542;48.272;10.794;2022-12-18T01:08:37;96742.38;;;-5.45;94.73
10978;BME280;5542;48.272;10.794;2022-12-18T01:11:07;96738.06;;;-5.44;94.81
10978;BME280;5542;48.272;10.794;2022-12-18T01:13:36;96741.44;;;-5.31;93.88
10978;BME280;5542;48.272;10.794;2022-12-18T01:16:03;96746.56;;;-5.44;94.08
10978;BME280;5542;48.272;10.794;2022-12-18T01:18:29;96746.25;;;-5.39;95.10
10978;BME280;5542;48.272;10.794;2022-12-18T01:20:56;96746.34;;;-5.28;95.17
10978;BME280;5542;48.272;10.794;2022-12-18T01:23:22;96738.06;;;-5.31;94.65
10978;BME280;5542;48.272;10.794;2022-12-18T01:25:49;96746.13;;;-5.25;94.11
10978;BME280;5542;48.272;10.794;2022-12-18T01:28:15;96749.81;;;-5.16;93.82
10978;BME280;5542;48.272;10.794;2022-12-18T01:30:43;96763.47;;;-5.16;93.60
10978;BME280;5542;48.272;10.794;2022-12-18T01:33:10;96760.50;;;-5.22;94.09
10978;BME280;5542;48.272;10.794;2022-12-18T01:35:40;96753.81;;;-5.12;94.12
10978;BME280;5542;48.272;10.794;2022-12-18T01:38:08;96763.13;;;-4.98;93.85
10978;BME280;5542;48.272;10.794;2022-12-18T01:40:34;96768.06;;;-5.08;93.23
10978;BME280;5542;48.272;10.794;2022-12-18T01:43:01;96769.78;;;-5.08;93.43
10978;BME280;5542;48.272;10.794;2022-12-18T01:45:28;96766.94;;;-5.17;93.55
10978;BME280;5542;48.272;10.794;2022-12-18T01:47:58;96769.38;;;-5.02;93.44
10978;BME280;5542;48.272;10.794;2022-12-18T01:50:30;96772.72;;;-5.26;93.81
10978;BME280;5542;48.272;10.794;2022-12-18T01:53:00;96768.72;;;-5.30;94.18
10978;BME280;5542;48.272;10.794;2022-12-18T01:55:30;96767.84;;;-5.18;94.79
10978;BME280;5542;48.272;10.794;2022-12-18T01:57:59;96769.59;;;-5.18;93.85
10978;BME280;5542;48.272;10.794;2022-12-18T02:00:28;96765.09;;;-5.27;94.36
10978;BME280;5542;48.272;10.794;2022-12-18T02:02:56;96761.03;;;-5.43;94.76
10978;BME280;5542;48.272;10.794;2022-12-18T02:05:29;96761.22;;;-5.33;94.85
10978;BME280;5542;48.272;10.794;2022-12-18T02:08:06;96753.63;;;-5.34;94.98
10978;BME280;5542;48.272;10.794;2022-12-18T02:10:41;96758.47;;;-5.43;95.60
10978;BME280;5542;48.272;10.794;2022-12-18T02:13:12;96749.34;;;-5.47;96.01
10978;BME280;5542;48.272;10.794;2022-12-18T02:15:44;96755.91;;;-5.43;96.59
10978;BME280;5542;48.272;10.794;2022-12-18T02:18:19;96745.56;;;-5.41;95.85
10978;BME280;5542;48.272;10.794;2022-12-18T02:20:49;96750.56;;;-5.39;95.74
10978;BME280;5542;48.272;10.794;2022-12-18T02:23:24;96749.84;;;-5.29;95.91
10978;BME280;5542;48.272;10.794;2022-12-18T02:26:06;96750.16;;;-5.33;95.75
10978;BME280;5542;48.272;10.794;2022-12-18T02:28:36;96757.03;;;-5.47;95.92
10978;BME280;5542;48.272;10.794;2022-12-18T02:31:06;96757.72;;;-5.32;95.94
10978;BME280;5542;48.272;10.794;2022-12-18T02:33:35;96761.22;;;-5.33;95.73
10978;BME280;5542;48.272;10.794;2022-12-18T02:36:03;96762.03;;;-5.20;95.49
10978;BME280;5542;48.272;10.794;2022-12-18T02:38:31;96764.06;;;-5.12;94.94
10978;BME280;5542;48.272;10.794;2022-12-18T02:40:59;96771.78;;;-5.25;94.89
10978;BME280;5542;48.272;10.794;2022-12-18T02:43:29;96766.53;;;-5.23;94.89
10978;BME280;5542;48.272;10.794;2022-12-18T02:45:58;96759.78;;;-5.24;94.72
10978;BME280;5542;48.272;10.794;2022-12-18T02:48:29;96760.69;;;-5.12;94.76
10978;BME280;5542;48.272;10.794;2022-12-18T02:51:02;96754.63;;;-5.11;93.43
10978;BME280;5542;48.272;10.794;2022-12-18T02:53:36;96748.50;;;-5.34;93.62
10978;BME280;5542;48.272;10.794;2022-12-18T02:56:10;96759.50;;;-5.45;94.57
10978;BME280;5542;48.272;10.794;2022-12-18T02:58:45;96763.41;;;-5.39;94.12
10978;BME280;5542;48.272;10.794;2022-12-18T03:01:17;96768.84;;;-5.44;94.62
10978;BME280;5542;48.272;10.794;2022-12-18T03:03:49;96757.66;;;-5.56;95.12
10978;BME280;5542;48.272;10.794;2022-12-18T03:06:21;96750.38;;;-5.49;95.79
10978;BME280;5542;48.272;10.794;2022-12-18T03:08:54;96757.22;;;-5.37;95.88
10978;BME280;5542;48.272;10.794;2022-12-18T03:11:22;96749.13;;;-5.44;94.71
10978;BME280;5542;48.272;10.794;2022-12-18T03:14:06;96747.09;;;-5.51;94.99
10978;BME280;5542;48.272;10.794;2022-12-18T03:16:34;96759.41;;;-5.56;95.16
10978;BME280;5542;48.272;10.794;2022-12-18T03:19:04;96762.88;;;-5.57;95.27
10978;BME280;5542;48.272;10.794;2022-12-18T03:21:36;96765.97;;;-5.52;94.58
10978;BME280;5542;48.272;10.794;2022-12-18T03:24:06;96769.38;;;-5.64;94.62
10978;BME280;5542;48.272;10.794;2022-12-18T03:26:34;96781.97;;;-5.74;95.64
10978;BME280;5542;48.272;10.794;2022-12-18T03:29:04;96779.41;;;-5.61;96.25
10978;BME280;5542;48.272;10.794;2022-12-18T03:31:37;96780.22;;;-5.48;95.35
10978;BME280;5542;48.272;10.794;2022-12-18T03:34:11;96772.31;;;-5.58;95.50
10978;BME280;5542;48.272;10.794;2022-12-18T03:36:40;96768.84;;;-5.57;94.66
10978;BME280;5542;48.272;10.794;2022-12-18T03:39:06;96773.03;;;-5.56;94.47
10978;BME280;5542;48.272;10.794;2022-12-18T03:41:37;96783.59;;;-5.60;95.08
10978;BME280;5542;48.272;10.794;2022-12-18T03:44:12;96780.63;;;-5.67;95.20
10978;BME280;5542;48.272;10.794;2022-12-18T03:46:47;96782.28;;;-5.79;95.39
10978;BME280;5542;48.272;10.794;2022-12-18T03:49:23;96783.59;;;-5.73;95.76
10978;BME280;5542;48.272;10.794;2022-12-18T03:51:54;96788.00;;;-5.75;95.46
10978;BME280;5542;48.272;10.794;2022-12-18T03:54:25;96787.91;;;-5.74;95.94
10978;BME280;5542;48.272;10.794;2022-12-18T03:56:56;96788.50;;;-5.70;96.23
10978;BME280;5542;48.272;10.794;2022-12-18T03:59:24;96782.47;;;-5.56;95.89
10978;BME280;5542;48.272;10.794;2022-12-18T04:01:54;96781.34;;;-5.65;95.04
10978;BME280;5542;48.272;10.794;2022-12-18T04:04:24;96776.13;;;-5.76;95.15
10978;BME280;5542;48.272;10.794;2022-12-18T04:06:52;96778.97;;;-5.81;95.54
10978;BME280;5542;48.272;10.794;2022-12-18T04:09:19;96777.75;;;-5.75;95.51
10978;BME280;5542;48.272;10.794;2022-12-18T04:11:46;96782.97;;;-5.77;95.55
10978;BME280;5542;48.272;10.794;2022-12-18T04:14:14;96787.09;;;-5.87;95.80
10978;BME280;5542;48.272;10.794;2022-12-18T04:16:40;96793.53;;;-5.81;95.20
10978;BME280;5542;48.272;10.794;2022-12-18T04:19:08;96785.97;;;-5.96;96.32
10978;BME280;5542;48.272;10.794;2022-12-18T04:21:35;96783.41;;;-5.83;96.56
10978;BME280;5542;48.272;10.794;2022-12-18T04:24:02;96780.13;;;-5.98;96.24
10978;BME280;5542;48.272;10.794;2022-12-18T04:26:28;96789.66;;;-6.00;96.39
10978;BME280;5542;48.272;10.794;2022-12-18T04:28:55;96784.81;;;-6.04;97.38
10978;BME280;5542;48.272;10.794;2022-12-18T04:31:21;96783.50;;;-5.97;96.99
10978;BME280;5542;48.272;10.794;2022-12-18T04:33:48;96787.59;;;-5.95;96.53
10978;BME280;5542;48.272;10.794;2022-12-18T04:36:16;96790.38;;;-5.98;96.44
10978;BME280;5542;48.272;10.794;2022-12-18T04:38:42;96799.88;;;-5.87;96.30
10978;BME280;5542;48.272;10.794;2022-12-18T04:41:09;96800.00;;;-5.88;96.75
10978;BME280;5542;48.272;10.794;2022-12-18T04:43:38;96794.28;;;-5.92;96.52
10978;BME280;5542;48.272;10.794;2022-12-18T04:46:06;96799.69;;;-5.97;96.85
10978;BME280;5542;48.272;10.794;2022-12-18T04:48:33;96796.69;;;-5.90;96.88
10978;BME280;5542;48.272;10.794;2022-12-18T04:51:00;96804.91;;;-5.85;96.78
10978;BME280;5542;48.272;10.794;2022-12-18T04:53:28;96806.53;;;-5.84;96.90
10978;BME280;5542;48.272;10.794;2022-12-18T04:56:02;96816.91;;;-5.99;97.12
10978;BME280;5542;48.272;10.794;2022-12-18T04:58:29;96815.59;;;-5.91;97.18
10978;BME280;5542;48.272;10.794;2022-12-18T05:00:56;96811.16;;;-5.89;96.82
10978;BME280;5542;48.272;10.794;2022-12-18T05:03:22;96811.88;;;-5.87;96.56
10978;BME280;5542;48.272;10.794;2022-12-18T05:05:49;96819.97;;;-5.94;97.31
10978;BME280;5542;48.272;10.794;2022-12-18T05:08:16;96818.03;;;-5.77;96.09
10978;BME280;5542;48.272;10.794;2022-12-18T05:10:44;96817.13;;;-5.63;95.39
10978;BME280;5542;48.272;10.794;2022-12-18T05:13:11;96815.28;;;-5.74;95.28
10978;BME280;5542;48.272;10.794;2022-12-18T05:15:37;96817.75;;;-5.73;94.91
10978;BME280;5542;48.272;10.794;2022-12-18T05:18:04;96823.75;;;-5.86;94.78
10978;BME280;5542;48.272;10.794;2022-12-18T05:20:31;96828.47;;;-5.80;95.93
10978;BME280;5542;48.272;10.794;2022-12-18T05:22:57;96829.41;;;-5.81;95.99
10978;BME280;5542;48.272;10.794;2022-12-18T05:25:24;96830.34;;;-5.57;95.52
10978;BME280;5542;48.272;10.794;2022-12-18T05:27:52;96838.97;;;-5.58;94.46
10978;BME280;5542;48.272;10.794;2022-12-18T05:30:19;96830.25;;;-5.68;94.78
10978;BME280;5542;48.272;10.794;2022-12-18T05:32:45;96837.19;;;-5.70;94.25
10978;BME280;5542;48.272;10.794;2022-12-18T05:35:12;96832.50;;;-5.63;94.44
10978;BME280;5542;48.272;10.794;2022-12-18T05:37:38;96826.25;;;-5.72;94.56
10978;BME280;5542;48.272;10.794;2022-12-18T05:40:06;96827.28;;;-5.62;94.34
10978;BME280;5542;48.272;10.794;2022-12-18T05:42:33;96819.25;;;-5.70;94.54
10978;BME280;5542;48.272;10.794;2022-12-18T05:45:01;96816.91;;;-5.73;94.78
10978;BME280;5542;48.272;10.794;2022-12-18T05:47:27;96820.63;;;-5.64;94.84
10978;BME280;5542;48.272;10.794;2022-12-18T05:49:55;96823.97;;;-5.77;95.03
10978;BME280;5542;48.272;10.794;2022-12-18T05:52:21;96829.00;;;-5.75;95.36
10978;BME280;5542;48.272;10.794;2022-12-18T05:54:48;96825.72;;;-5.77;95.42
10978;BME280;5542;48.272;10.794;2022-12-18T05:57:15;96831.06;;;-5.68;94.82
10978;BME280;5542;48.272;10.794;2022-12-18T05:59:41;96844.00;;;-5.69;94.74
10978;BME280;5542;48.272;10.794;2022-12-18T06:02:09;96843.66;;;-5.77;94.29
10978;BME280;5542;48.272;10.794;2022-12-18T06:04:35;96843.84;;;-5.80;94.49
10978;BME280;5542;48.272;10.794;2022-12-18T06:07:02;96849.31;;;-5.72;94.43
10978;BME280;5542;48.272;10.794;2022-12-18T06:09:31;96849.78;;;-5.80;94.96
10978;BME280;5542;48.272;10.794;2022-12-18T06:11:58;96845.06;;;-5.86;94.69
10978;BME280;5542;48.272;10.794;2022-12-18T06:14:25;96855.22;;;-5.84;94.51
10978;BME280;5542;48.272;10.794;2022-12-18T06:16:51;96852.56;;;-5.70;94.52
10978;BME280;5542;48.272;10.794;2022-12-18T06:19:19;96846.00;;;-5.87;94.78
10978;BME280;5542;48.272;10.794;2022-12-18T06:21:46;96853.91;;;-5.77;95.13
10978;BME280;5542;48.272;10.794;2022-12-18T06:24:12;96852.19;;;-5.64;93.45
10978;BME280;5542;48.272;10.794;2022-12-18T06:26:39;96853.09;;;-5.65;93.68
10978;BME280;5542;48.272;10.794;2022-12-18T06:29:06;96857.69;;;-5.70;94.37
10978;BME280;5542;48.272;10.794;2022-12-18T06:31:33;96854.75;;;-5.64;94.81
10978;BME280;5542;48.272;10.794;2022-12-18T06:34:02;96860.88;;;-5.79;94.74
10978;BME280;5542;48.272;10.794;2022-12-18T06:36:30;96867.06;;;-5.69;94.42
10978;BME280;5542;48.272;10.794;2022-12-18T06:38:57;96869.22;;;-5.63;94.79
10978;BME280;5542;48.272;10.794;2022-12-18T06:41:23;96875.25;;;-5.64;95.02
10978;BME280;5542;48.272;10.794;2022-12-18T06:43:50;96872.69;;;-5.64;94.20
10978;BME280;5542;48.272;10.794;2022-12-18T06:46:17;96862.94;;;-5.72;94.60
10978;BME280;5542;48.272;10.794;2022-12-18T06:48:46;96875.72;;;-5.84;94.47
10978;BME280;5542;48.272;10.794;2022-12-18T06:51:16;96878.69;;;-5.90;95.13
10978;BME280;5542;48.272;10.794;2022-12-18T06:53:44;96873.16;;;-5.84;94.95
10978;BME280;5542;48.272;10.794;2022-12-18T06:56:10;96871.34;;;-5.82;94.97
10978;BME280;5542;48.272;10.794;2022-12-18T06:58:37;96877.50;;;-5.72;94.70
10978;BME280;5542;48.272;10.794;2022-12-18T07:01:05;96885.38;;;-5.75;94.85
10978;BME280;5542;48.272;10.794;2022-12-18T07:03:32;96879.56;;;-5.64;93.90
10978;BME280;5542;48.272;10.794;2022-12-18T07:05:59;96889.97;;;-5.80;94.34
10978;BME280;5542;48.272;10.794;2022-12-18T07:08:25;96898.00;;;-5.72;94.46
10978;BME280;5542;48.272;10.794;2022-12-18T07:10:53;96899.75;;;-5.73;94.43
10978;BME280;5542;48.272;10.794;2022-12-18T07:13:20;96897.06;;;-5.71;94.53
10978;BME280;5542;48.272;10.794;2022-12-18T07:15:46;96882.81;;;-5.75;94.04
10978;BME280;5542;48.272;10.794;2022-12-18T07:18:13;96897.00;;;-5.70;94.29
10978;BME280;5542;48.272;10.794;2022-12-18T07:20:40;96891.53;;;-5.78;94.25
10978;BME280;5542;48.272;10.794;2022-12-18T07:23:06;96891.72;;;-5.94;94.37
10978;BME280;5542;48.272;10.794;2022-12-18T07:25:33;96892.00;;;-5.85;94.88
10978;BME280;5542;48.272;10.794;2022-12-18T07:28:02;96896.31;;;-5.86;95.27
10978;BME280;5542;48.272;10.794;2022-12-18T07:30:28;96898.59;;;-5.81;94.34
10978;BME280;5542;48.272;10.794;2022-12-18T07:32:55;96899.31;;;-5.92;94.96
10978;BME280;5542;48.272;10.794;2022-12-18T07:35:21;96902.81;;;-5.68;94.89
10978;BME280;5542;48.272;10.794;2022-12-18T07:37:48;96909.59;;;-5.67;94.73
10978;BME280;5542;48.272;10.794;2022-12-18T07:40:15;96907.25;;;-5.70;94.03
10978;BME280;5542;48.272;10.794;2022-12-18T07:42:41;96918.91;;;-5.78;94.87
10978;BME280;5542;48.272;10.794;2022-12-18T07:45:09;96927.94;;;-5.73;93.89
10978;BME280;5542;48.272;10.794;2022-12-18T07:47:36;96925.13;;;-5.82;94.35
10978;BME280;5542;48.272;10.794;2022-12-18T07:50:04;96922.91;;;-5.74;94.61
10978;BME280;5542;48.272;10.794;2022-12-18T07:52:30;96924.84;;;-5.78;94.43
10978;BME280;5542;48.272;10.794;2022-12-18T07:54:57;96921.34;;;-5.77;94.15
10978;BME280;5542;48.272;10.794;2022-12-18T07:57:24;96923.81;;;-5.75;94.10
10978;BME280;5542;48.272;10.794;2022-12-18T07:59:50;96926.91;;;-5.70;94.25
10978;BME280;5542;48.272;10.794;2022-12-18T08:02:18;96925.06;;;-5.68;94.61
10978;BME280;5542;48.272;10.794;2022-12-18T08:04:45;96941.47;;;-5.71;94.69
10978;BME280;5542;48.272;10.794;2022-12-18T08:07:11;96945.97;;;-5.74;94.28
10978;BME280;5542;48.272;10.794;2022-12-18T08:09:39;96953.09;;;-5.79;95.14
10978;BME280;5542;48.272;10.794;2022-12-18T08:12:06;96951.75;;;-5.58;95.63
10978;BME280;5542;48.272;10.794;2022-12-18T08:14:32;96947.75;;;-5.62;95.63
10978;BME280;5542;48.272;10.794;2022-12-18T08:16:59;96955.19;;;-5.45;93.91
10978;BME280;5542;48.272;10.794;2022-12-18T08:19:27;96953.03;;;-5.38;93.94
10978;BME280;5542;48.272;10.794;2022-12-18T08:21:53;96948.53;;;-5.34;93.22
10978;BME280;5542;48.272;10.794;2022-12-18T08:24:20;96945.63;;;-5.43;93.09
10978;BME280;5542;48.272;10.794;2022-12-18T08:26:46;96942.84;;;-5.52;93.16
10978;BME280;5542;48.272;10.794;2022-12-18T08:29:13;96941.53;;;-5.45;93.35
10978;BME280;5542;48.272;10.794;2022-12-18T08:31:39;96943.66;;;-5.52;93.83
10978;BME280;5542;48.272;10.794;2022-12-18T08:34:07;96933.03;;;-5.46;94.01
10978;BME280;5542;48.272;10.794;2022-12-18T08:36:36;96942.44;;;-5.46;93.30
10978;BME280;5542;48.272;10.794;2022-12-18T08:39:02;96941.09;;;-5.52;93.42
10978;BME280;5542;48.272;10.794;2022-12-18T08:41:29;96933.09;;;-5.47;94.07
10978;BME280;5542;48.272;10.794;2022-12-18T08:43:55;96935.59;;;-5.33;94.01
10978;BME280;5542;48.272;10.794;2022-12-18T08:46:41;96937.66;;;-5.25;94.70
10978;BME280;5542;48.272;10.794;2022-12-18T08:49:09;96928.03;;;-4.96;93.81
10978;BME280;5542;48.272;10.794;2022-12-18T08:51:38;96928.53;;;-5.04;93.05
10978;BME280;5542;48.272;10.794;2022-12-18T08:54:06;96924.03;;;-5.00;92.47
10978;BME280;5542;48.272;10.794;2022-12-18T08:56:32;96923.28;;;-4.77;90.66
10978;BME280;5542;48.272;10.794;2022-12-18T08:58:59;96922.69;;;-4.93;91.21
10978;BME280;5542;48.272;10.794;2022-12-18T09:01:26;96932.13;;;-5.06;91.22
10978;BME280;5542;48.272;10.794;2022-12-18T09:03:52;96932.16;;;-4.94;90.65
10978;BME280;5542;48.272;10.794;2022-12-18T09:06:23;96930.28;;;-5.04;91.57
10978;BME280;5542;48.272;10.794;2022-12-18T09:08:53;96935.94;;;-4.86;91.18
10978;BME280;5542;48.272;10.794;2022-12-18T09:11:21;96932.47;;;-4.98;90.79
10978;BME280;5542;48.272;10.794;2022-12-18T09:13:49;96943.03;;;-5.03;91.58
10978;BME280;5542;48.272;10.794;2022-12-18T09:16:16;96933.06;;;-4.95;90.68
10978;BME280;5542;48.272;10.794;2022-12-18T09:18:42;96946.00;;;-4.96;91.51
10978;BME280;5542;48.272;10.794;2022-12-18T09:21:10;96940.34;;;-4.88;90.62
10978;BME280;5542;48.272;10.794;2022-12-18T09:23:37;96937.59;;;-4.98;91.29
10978;BME280;5542;48.272;10.794;2022-12-18T09:26:06;96945.50;;;-4.88;91.22
10978;BME280;5542;48.272;10.794;2022-12-18T09:28:32;96941.78;;;-5.10;90.50
10978;BME280;5542;48.272;10.794;2022-12-18T09:31:04;96944.94;;;-5.19;90.47
10978;BME280;5542;48.272;10.794;2022-12-18T09:33:31;96942.38;;;-5.19;91.70
10978;BME280;5542;48.272;10.794;2022-12-18T09:35:57;96948.13;;;-5.28;90.75
10978;BME280;5542;48.272;10.794;2022-12-18T09:38:24;96940.09;;;-5.36;91.31
10978;BME280;5542;48.272;10.794;2022-12-18T09:40:52;96939.91;;;-5.33;92.15
10978;BME280;5542;48.272;10.794;2022-12-18T09:43:29;96935.81;;;-5.23;92.03
10978;BME280;5542;48.272;10.794;2022-12-18T09:46:02;96929.84;;;-5.36;91.95
10978;BME280;5542;48.272;10.794;2022-12-18T09:48:32;96936.94;;;-5.27;92.63
10978;BME280;5542;48.272;10.794;2022-12-18T09:51:02;96938.06;;;-5.31;91.57
10978;BME280;5542;48.272;10.794;2022-12-18T09:53:35;96939.59;;;-5.29;91.36
10978;BME280;5542;48.272;10.794;2022-12-18T09:56:05;96938.78;;;-5.29;91.60
10978;BME280;5542;48.272;10.794;2022-12-18T09:58:37;96937.56;;;-5.24;91.02
10978;BME280;5542;48.272;10.794;2022-12-18T10:01:10;96922.28;;;-5.25;91.74
10978;BME280;5542;48.272;10.794;2022-12-18T10:03:37;96917.88;;;-5.10;91.07
10978;BME280;5542;48.272;10.794;2022-12-18T10:06:07;96913.44;;;-5.08;90.48
10978;BME280;5542;48.272;10.794;2022-12-18T10:08:43;96917.16;;;-5.25;91.10
10978;BME280;5542;48.272;10.794;2022-12-18T10:11:25;96918.06;;;-5.26;91.06
10978;BME280;5542;48.272;10.794;2022-12-18T10:13:57;96927.09;;;-5.21;91.14
10978;BME280;5542;48.272;10.794;2022-12-18T10:16:34;96917.03;;;-5.24;91.22
10978;BME280;5542;48.272;10.794;2022-12-18T10:19:17;96912.84;;;-5.25;91.28
10978;BME280;5542;48.272;10.794;2022-12-18T10:21:52;96911.81;;;-5.35;91.67
10978;BME280;5542;48.272;10.794;2022-12-18T10:24:29;96917.34;;;-5.28;92.46
10978;BME280;5542;48.272;10.794;2022-12-18T10:27:08;96909.13;;;-5.33;92.86
10978;BME280;5542;48.272;10.794;2022-12-18T10:29:38;96896.44;;;-5.22;93.30
10978;BME280;5542;48.272;10.794;2022-12-18T10:32:05;96910.38;;;-5.13;92.39
10978;BME280;5542;48.272;10.794;2022-12-18T10:34:31;96908.72;;;-5.15;92.29
10978;BME280;5542;48.272;10.794;2022-12-18T10:37:00;96915.81;;;-5.05;92.85
10978;BME280;5542;48.272;10.794;2022-12-18T10:39:30;96920.41;;;-4.85;92.64
10978;BME280;5542;48.272;10.794;2022-12-18T10:42:09;96928.03;;;-4.83;90.93
10978;BME280;5542;48.272;10.794;2022-12-18T10:44:38;96933.69;;;-4.78;90.89
10978;BME280;5542;48.272;10.794;2022-12-18T10:47:11;96930.56;;;-4.71;90.84
10978;BME280;5542;48.272;10.794;2022-12-18T10:49:42;96927.59;;;-4.65;90.28
10978;BME280;5542;48.272;10.794;2022-12-18T10:52:15;96928.22;;;-4.86;89.10
10978;BME280;5542;48.272;10.794;2022-12-18T10:54:48;96921.84;;;-4.81;89.73
10978;BME280;5542;48.272;10.794;2022-12-18T10:57:17;96920.34;;;-4.83;89.30
10978;BME280;5542;48.272;10.794;2022-12-18T10:59:53;96930.50;;;-4.82;88.62
10978;BME280;5542;48.272;10.794;2022-12-18T11:02:28;96929.75;;;-4.71;89.18
10978;BME280;5542;48.272;10.794;2022-12-18T11:04:57;96921.75;;;-4.67;89.20
10978;BME280;5542;48.272;10.794;2022-12-18T11:07:23;96919.09;;;-4.65;88.80
10978;BME280;5542;48.272;10.794;2022-12-18T11:10:00;96916.53;;;-4.65;88.13
10978;BME280;5542;48.272;10.794;2022-12-18T11:12:29;96924.28;;;-4.54;87.60
10978;BME280;5542;48.272;10.794;2022-12-18T11:14:58;96921.00;;;-4.56;87.16
10978;BME280;5542;48.272;10.794;2022-12-18T11:17:28;96922.75;;;-4.56;87.55
10978;BME280;5542;48.272;10.794;2022-12-18T11:19:57;96916.38;;;-4.51;87.29
10978;BME280;5542;48.272;10.794;2022-12-18T11:22:25;96918.66;;;-4.46;87.54
10978;BME280;5542;48.272;10.794;2022-12-18T11:24:56;96908.97;;;-4.43;87.32
10978;BME280;5542;48.272;10.794;2022-12-18T11:27:23;96902.94;;;-4.54;87.10
10978;BME280;5542;48.272;10.794;2022-12-18T11:29:51;96908.88;;;-4.54;87.24
10978;BME280;5542;48.272;10.794;2022-12-18T11:32:27;96916.47;;;-4.40;86.73
10978;BME280;5542;48.272;10.794;2022-12-18T11:35:00;96907.81;;;-4.39;85.98
10978;BME280;5542;48.272;10.794;2022-12-18T11:37:29;96914.59;;;-4.38;86.16
10978;BME280;5542;48.272;10.794;2022-12-18T11:40:01;96912.13;;;-4.39;86.47
10978;BME280;5542;48.272;10.794;2022-12-18T11:42:34;96900.88;;;-4.49;86.59
10978;BME280;5542;48.272;10.794;2022-12-18T11:45:17;96899.63;;;-4.44;87.17
10978;BME280;5542;48.272;10.794;2022-12-18T11:47:54;96899.78;;;-4.34;87.51
10978;BME280;5542;48.272;10.794;2022-12-18T11:50:24;96903.69;;;-4.28;87.39
10978;BME280;5542;48.272;10.794;2022-12-18T11:52:51;96905.72;;;-4.21;86.95
10978;BME280;5542;48.272;10.794;2022-12-18T11:55:26;96903.16;;;-4.21;87.04
10978;BME280;5542;48.272;10.794;2022-12-18T11:57:57;96900.91;;;-4.25;86.04
10978;BME280;5542;48.272;10.794;2022-12-18T12:00:27;96888.88;;;-4.25;85.92
10978;BME280;5542;48.272;10.794;2022-12-18T12:03:18;96892.69;;;-4.30;86.09
10978;BME280;5542;48.272;10.794;2022-12-18T12:05:58;96884.44;;;-4.23;86.61
10978;BME280;5542;48.272;10.794;2022-12-18T12:08:38;96885.81;;;-4.30;85.44
10978;BME280;5542;48.272;10.794;2022-12-18T12:11:15;96886.06;;;-4.46;85.91
10978;BME280;5542;48.272;10.794;2022-12-18T12:13:53;96888.56;;;-4.57;85.93
10978;BME280;5542;48.272;10.794;2022-12-18T12:16:28;96885.72;;;-4.65;85.92
10978;BME280;5542;48.272;10.794;2022-12-18T12:19:05;96878.53;;;-4.85;87.36
10978;BME280;5542;48.272;10.794;2022-12-18T12:21:39;96884.69;;;-4.75;88.15
10978;BME280;5542;48.272;10.794;2022-12-18T12:24:22;96894.13;;;-4.76;86.90
10978;BME280;5542;48.272;10.794;2022-12-18T12:26:59;96892.50;;;-4.90;88.21
10978;BME280;5542;48.272;10.794;2022-12-18T12:29:36;96884.09;;;-4.79;88.92
10978;BME280;5542;48.272;10.794;2022-12-18T12:32:17;96892.88;;;-4.57;88.93
10978;BME280;5542;48.272;10.794;2022-12-18T12:34:55;96890.50;;;-4.60;87.92
10978;BME280;5542;48.272;10.794;2022-12-18T12:37:35;96892.75;;;-4.56;87.13
10978;BME280;5542;48.272;10.794;2022-12-18T12:40:06;96894.53;;;-4.69;86.88
10978;BME280;5542;48.272;10.794;2022-12-18T12:42:37;96879.41;;;-4.61;86.98
10978;BME280;5542;48.272;10.794;2022-12-18T12:45:26;96874.41;;;-4.63;87.72
10978;BME280;5542;48.272;10.794;2022-12-18T12:47:54;96858.00;;;-4.73;87.95
10978;BME280;5542;48.272;10.794;2022-12-18T12:50:25;96853.84;;;-4.63;86.79
10978;BME280;5542;48.272;10.794;2022-12-18T12:52:54;96854.63;;;-4.86;87.83
10978;BME280;5542;48.272;10.794;2022-12-18T12:55:25;96855.03;;;-4.79;88.53
10978;BME280;5542;48.272;10.794;2022-12-18T12:58:01;96854.31;;;-4.81;88.94
10978;BME280;5542;48.272;10.794;2022-12-18T13:00:35;96854.31;;;-4.81;88.94
10978;BME280;5542;48.272;10.794;2022-12-18T13:03:09;96855.53;;;-4.74;88.96
10978;BME280;5542;48.272;10.794;2022-12-18T13:05:43;96854.28;;;-4.69;88.69
10978;BME280;5542;48.272;10.794;2022-12-18T13:08:23;96855.53;;;-4.74;88.12
10978;BME280;5542;48.272;10.794;2022-12-18T13:10:53;96850.81;;;-4.80;88.25
10978;BME280;5542;48.272;10.794;2022-12-18T13:13:49;96845.59;;;-4.79;88.51